Terminal Aerodrome Forecast
Issued by NWS

Home | Current Version | Previous Version | Text Only | Print | Product List | Glossary On
Versions: 1 2 3 4 5 6 7 8 9 10 11 12 13 14 15 16 17 18 19 20 21 22 23 24 25 26 27 28 29 30 31
000
FTAK31 PAFA 010400 AAB
TAFAFA
TAF AMD
PAFA 010400Z 0104/0206 24005KT P6SM FEW060 BKN080 BKN100
      TEMPO 0104/0106 4SM FU
     FM010600 25005KT 4SM FU SCT020 SCT045 BKN080
      TEMPO 0108/0110 3SM -SHRA FU SCT020 BKN045
     FM011000 24005KT 4SM -SHRA FU BKN045 BKN080=

USA.gov is the U.S. government's official web portal to all federal, state and local government web resources and services.